sensor_id;sensor_type;location;lat;lon;timestamp;P1;durP1;ratioP1;P2;durP2;ratioP2
13325;SDS011;6732;51.044;3.746;2022-08-23T00:01:30;6.60;;;3.70;;
13325;SDS011;6732;51.044;3.746;2022-08-23T00:04:02;7.88;;;3.50;;
13325;SDS011;6732;51.044;3.746;2022-08-23T00:06:31;7.13;;;3.78;;
13325;SDS011;6732;51.044;3.746;2022-08-23T00:08:58;8.40;;;3.80;;
13325;SDS011;6732;51.044;3.746;2022-08-23T00:13:52;8.52;;;3.80;;
13325;SDS011;6732;51.044;3.746;2022-08-23T00:16:18;9.88;;;4.13;;
13325;SDS011;6732;51.044;3.746;2022-08-23T00:18:44;9.18;;;3.85;;
13325;SDS011;6732;51.044;3.746;2022-08-23T00:21:10;7.45;;;3.75;;
13325;SDS011;6732;51.044;3.746;2022-08-23T00:23:37;6.57;;;3.63;;
13325;SDS011;6732;51.044;3.746;2022-08-23T00:26:04;6.38;;;3.33;;
13325;SDS011;6732;51.044;3.746;2022-08-23T00:28:30;7.07;;;3.72;;
13325;SDS011;6732;51.044;3.746;2022-08-23T00:30:56;5.72;;;3.50;;
13325;SDS011;6732;51.044;3.746;2022-08-23T00:33:23;6.05;;;3.92;;
13325;SDS011;6732;51.044;3.746;2022-08-23T00:35:50;6.93;;;4.07;;
13325;SDS011;6732;51.044;3.746;2022-08-23T00:38:17;9.07;;;3.85;;
13325;SDS011;6732;51.044;3.746;2022-08-23T00:40:44;8.52;;;3.90;;
13325;SDS011;6732;51.044;3.746;2022-08-23T00:43:13;5.25;;;3.40;;
13325;SDS011;6732;51.044;3.746;2022-08-23T00:46:09;8.15;;;3.95;;
13325;SDS011;6732;51.044;3.746;2022-08-23T00:49:06;6.90;;;3.90;;
13325;SDS011;6732;51.044;3.746;2022-08-23T00:54:13;6.97;;;3.90;;
13325;SDS011;6732;51.044;3.746;2022-08-23T00:56:41;5.88;;;3.70;;
13325;SDS011;6732;51.044;3.746;2022-08-23T00:59:07;8.88;;;4.18;;
13325;SDS011;6732;51.044;3.746;2022-08-23T01:01:33;8.27;;;4.07;;
13325;SDS011;6732;51.044;3.746;2022-08-23T01:04:00;5.50;;;3.63;;
13325;SDS011;6732;51.044;3.746;2022-08-23T01:06:29;7.10;;;4.35;;
13325;SDS011;6732;51.044;3.746;2022-08-23T01:09:01;6.80;;;3.63;;
13325;SDS011;6732;51.044;3.746;2022-08-23T01:11:53;6.35;;;3.45;;
13325;SDS011;6732;51.044;3.746;2022-08-23T01:14:38;6.72;;;3.85;;
13325;SDS011;6732;51.044;3.746;2022-08-23T01:17:13;6.68;;;3.75;;
13325;SDS011;6732;51.044;3.746;2022-08-23T01:19:49;7.30;;;4.05;;
13325;SDS011;6732;51.044;3.746;2022-08-23T01:24:50;6.25;;;4.10;;
13325;SDS011;6732;51.044;3.746;2022-08-23T01:27:17;6.28;;;4.00;;
13325;SDS011;6732;51.044;3.746;2022-08-23T01:29:43;9.18;;;3.78;;
13325;SDS011;6732;51.044;3.746;2022-08-23T01:32:10;8.38;;;4.00;;
13325;SDS011;6732;51.044;3.746;2022-08-23T01:34:37;9.45;;;4.03;;
13325;SDS011;6732;51.044;3.746;2022-08-23T01:37:04;9.98;;;4.57;;
13325;SDS011;6732;51.044;3.746;2022-08-23T01:39:32;5.82;;;4.00;;
13325;SDS011;6732;51.044;3.746;2022-08-23T01:41:58;8.80;;;4.40;;
13325;SDS011;6732;51.044;3.746;2022-08-23T01:44:25;9.25;;;4.40;;
13325;SDS011;6732;51.044;3.746;2022-08-23T01:46:51;6.65;;;4.07;;
13325;SDS011;6732;51.044;3.746;2022-08-23T01:49:18;8.02;;;3.95;;
13325;SDS011;6732;51.044;3.746;2022-08-23T01:51:44;6.90;;;4.40;;
13325;SDS011;6732;51.044;3.746;2022-08-23T01:54:11;7.00;;;4.30;;
13325;SDS011;6732;51.044;3.746;2022-08-23T01:56:40;8.32;;;4.53;;
13325;SDS011;6732;51.044;3.746;2022-08-23T01:59:07;6.68;;;4.20;;
13325;SDS011;6732;51.044;3.746;2022-08-23T02:01:34;10.15;;;4.40;;
13325;SDS011;6732;51.044;3.746;2022-08-23T02:04:01;7.63;;;3.97;;
13325;SDS011;6732;51.044;3.746;2022-08-23T02:06:28;7.20;;;4.40;;
13325;SDS011;6732;51.044;3.746;2022-08-23T02:08:54;10.15;;;4.30;;
13325;SDS011;6732;51.044;3.746;2022-08-23T02:11:31;9.35;;;4.70;;
13325;SDS011;6732;51.044;3.746;2022-08-23T02:14:00;8.13;;;4.50;;
13325;SDS011;6732;51.044;3.746;2022-08-23T02:16:33;6.15;;;4.35;;
13325;SDS011;6732;51.044;3.746;2022-08-23T02:19:01;7.65;;;4.30;;
13325;SDS011;6732;51.044;3.746;2022-08-23T02:21:29;9.90;;;4.40;;
13325;SDS011;6732;51.044;3.746;2022-08-23T02:23:58;7.43;;;4.75;;
13325;SDS011;6732;51.044;3.746;2022-08-23T02:26:27;8.32;;;5.10;;
13325;SDS011;6732;51.044;3.746;2022-08-23T02:28:53;7.88;;;5.07;;
13325;SDS011;6732;51.044;3.746;2022-08-23T02:31:20;10.52;;;4.57;;
13325;SDS011;6732;51.044;3.746;2022-08-23T02:33:46;6.25;;;4.30;;
13325;SDS011;6732;51.044;3.746;2022-08-23T02:36:13;6.70;;;4.65;;
13325;SDS011;6732;51.044;3.746;2022-08-23T02:38:39;10.25;;;4.90;;
13325;SDS011;6732;51.044;3.746;2022-08-23T02:41:05;7.38;;;4.82;;
13325;SDS011;6732;51.044;3.746;2022-08-23T02:43:31;5.32;;;4.22;;
13325;SDS011;6732;51.044;3.746;2022-08-23T02:45:58;10.05;;;5.05;;
13325;SDS011;6732;51.044;3.746;2022-08-23T02:48:24;8.30;;;5.30;;
13325;SDS011;6732;51.044;3.746;2022-08-23T02:50:50;6.88;;;4.93;;
13325;SDS011;6732;51.044;3.746;2022-08-23T02:53:16;6.30;;;4.65;;
13325;SDS011;6732;51.044;3.746;2022-08-23T02:55:46;7.85;;;5.03;;
13325;SDS011;6732;51.044;3.746;2022-08-23T02:58:12;7.65;;;4.72;;
13325;SDS011;6732;51.044;3.746;2022-08-23T03:00:38;8.00;;;4.68;;
13325;SDS011;6732;51.044;3.746;2022-08-23T03:03:04;8.75;;;4.75;;
13325;SDS011;6732;51.044;3.746;2022-08-23T03:05:30;8.00;;;4.70;;
13325;SDS011;6732;51.044;3.746;2022-08-23T03:07:57;6.88;;;5.03;;
13325;SDS011;6732;51.044;3.746;2022-08-23T03:10:23;9.38;;;4.78;;
13325;SDS011;6732;51.044;3.746;2022-08-23T03:12:48;9.98;;;5.05;;
13325;SDS011;6732;51.044;3.746;2022-08-23T03:15:15;10.00;;;4.80;;
13325;SDS011;6732;51.044;3.746;2022-08-23T03:17:40;9.15;;;5.15;;
13325;SDS011;6732;51.044;3.746;2022-08-23T03:20:07;8.25;;;5.15;;
13325;SDS011;6732;51.044;3.746;2022-08-23T03:22:33;10.63;;;5.20;;
13325;SDS011;6732;51.044;3.746;2022-08-23T03:24:59;9.48;;;5.10;;
13325;SDS011;6732;51.044;3.746;2022-08-23T03:27:25;8.95;;;5.57;;
13325;SDS011;6732;51.044;3.746;2022-08-23T03:29:51;9.25;;;5.25;;
13325;SDS011;6732;51.044;3.746;2022-08-23T03:32:17;8.63;;;4.97;;
13325;SDS011;6732;51.044;3.746;2022-08-23T03:34:44;7.75;;;4.57;;
13325;SDS011;6732;51.044;3.746;2022-08-23T03:37:09;8.93;;;5.00;;
13325;SDS011;6732;51.044;3.746;2022-08-23T03:39:35;9.13;;;5.22;;
13325;SDS011;6732;51.044;3.746;2022-08-23T03:42:02;9.82;;;5.25;;
13325;SDS011;6732;51.044;3.746;2022-08-23T03:44:28;8.70;;;5.10;;
13325;SDS011;6732;51.044;3.746;2022-08-23T03:46:54;9.35;;;5.80;;
13325;SDS011;6732;51.044;3.746;2022-08-23T03:49:20;6.88;;;5.07;;
13325;SDS011;6732;51.044;3.746;2022-08-23T03:51:46;9.18;;;5.07;;
13325;SDS011;6732;51.044;3.746;2022-08-23T03:54:12;8.00;;;4.88;;
13325;SDS011;6732;51.044;3.746;2022-08-23T03:56:39;10.27;;;5.43;;
13325;SDS011;6732;51.044;3.746;2022-08-23T03:59:24;10.93;;;6.15;;
13325;SDS011;6732;51.044;3.746;2022-08-23T04:01:51;7.90;;;5.25;;
13325;SDS011;6732;51.044;3.746;2022-08-23T04:04:18;9.63;;;4.63;;
13325;SDS011;6732;51.044;3.746;2022-08-23T04:06:44;9.05;;;5.10;;
13325;SDS011;6732;51.044;3.746;2022-08-23T04:09:12;10.38;;;5.68;;
13325;SDS011;6732;51.044;3.746;2022-08-23T04:11:38;6.78;;;4.85;;
13325;SDS011;6732;51.044;3.746;2022-08-23T04:14:04;9.65;;;4.70;;
13325;SDS011;6732;51.044;3.746;2022-08-23T04:16:31;8.43;;;5.28;;
13325;SDS011;6732;51.044;3.746;2022-08-23T04:19:03;7.60;;;5.22;;
13325;SDS011;6732;51.044;3.746;2022-08-23T04:21:29;7.03;;;5.10;;
13325;SDS011;6732;51.044;3.746;2022-08-23T04:23:56;7.35;;;4.85;;
13325;SDS011;6732;51.044;3.746;2022-08-23T04:26:22;7.20;;;4.95;;
13325;SDS011;6732;51.044;3.746;2022-08-23T04:28:48;9.52;;;5.35;;
13325;SDS011;6732;51.044;3.746;2022-08-23T04:31:14;9.40;;;5.68;;
13325;SDS011;6732;51.044;3.746;2022-08-23T04:33:41;8.88;;;5.30;;
13325;SDS011;6732;51.044;3.746;2022-08-23T04:36:07;9.60;;;5.53;;
13325;SDS011;6732;51.044;3.746;2022-08-23T04:38:33;10.50;;;5.63;;
13325;SDS011;6732;51.044;3.746;2022-08-23T04:40:59;12.98;;;5.88;;
13325;SDS011;6732;51.044;3.746;2022-08-23T04:43:44;11.32;;;6.30;;
13325;SDS011;6732;51.044;3.746;2022-08-23T04:46:10;11.70;;;6.00;;
13325;SDS011;6732;51.044;3.746;2022-08-23T04:48:44;11.07;;;6.00;;
13325;SDS011;6732;51.044;3.746;2022-08-23T04:51:11;10.95;;;6.28;;
13325;SDS011;6732;51.044;3.746;2022-08-23T04:53:37;10.38;;;5.93;;
13325;SDS011;6732;51.044;3.746;2022-08-23T04:56:04;8.45;;;5.50;;
13325;SDS011;6732;51.044;3.746;2022-08-23T04:58:31;13.82;;;6.78;;
13325;SDS011;6732;51.044;3.746;2022-08-23T05:00:58;11.07;;;5.85;;
13325;SDS011;6732;51.044;3.746;2022-08-23T05:03:25;12.07;;;5.82;;
13325;SDS011;6732;51.044;3.746;2022-08-23T05:05:52;10.02;;;6.43;;
13325;SDS011;6732;51.044;3.746;2022-08-23T05:08:19;9.15;;;6.10;;
13325;SDS011;6732;51.044;3.746;2022-08-23T05:10:44;11.15;;;6.05;;
13325;SDS011;6732;51.044;3.746;2022-08-23T05:13:11;12.18;;;6.50;;
13325;SDS011;6732;51.044;3.746;2022-08-23T05:15:37;9.90;;;6.43;;
13325;SDS011;6732;51.044;3.746;2022-08-23T05:18:03;13.05;;;6.20;;
13325;SDS011;6732;51.044;3.746;2022-08-23T05:20:30;11.77;;;6.38;;
13325;SDS011;6732;51.044;3.746;2022-08-23T05:22:58;9.38;;;5.95;;
13325;SDS011;6732;51.044;3.746;2022-08-23T05:25:25;10.48;;;6.72;;
13325;SDS011;6732;51.044;3.746;2022-08-23T05:28:11;11.98;;;6.07;;
13325;SDS011;6732;51.044;3.746;2022-08-23T05:30:37;11.05;;;6.20;;
13325;SDS011;6732;51.044;3.746;2022-08-23T05:33:03;11.10;;;6.03;;
13325;SDS011;6732;51.044;3.746;2022-08-23T05:35:30;10.88;;;6.93;;
13325;SDS011;6732;51.044;3.746;2022-08-23T05:37:56;13.38;;;6.38;;
13325;SDS011;6732;51.044;3.746;2022-08-23T05:40:25;11.02;;;6.70;;
13325;SDS011;6732;51.044;3.746;2022-08-23T05:42:52;11.63;;;6.53;;
13325;SDS011;6732;51.044;3.746;2022-08-23T05:45:18;9.07;;;6.43;;
13325;SDS011;6732;51.044;3.746;2022-08-23T05:47:44;9.95;;;6.03;;
13325;SDS011;6732;51.044;3.746;2022-08-23T05:50:11;11.82;;;5.90;;
13325;SDS011;6732;51.044;3.746;2022-08-23T05:52:38;9.68;;;6.30;;
13325;SDS011;6732;51.044;3.746;2022-08-23T05:55:04;10.55;;;6.07;;
13325;SDS011;6732;51.044;3.746;2022-08-23T05:57:33;11.13;;;6.40;;
13325;SDS011;6732;51.044;3.746;2022-08-23T06:00:00;13.95;;;6.47;;
13325;SDS011;6732;51.044;3.746;2022-08-23T06:02:26;9.18;;;6.05;;
13325;SDS011;6732;51.044;3.746;2022-08-23T06:04:52;8.55;;;5.82;;
13325;SDS011;6732;51.044;3.746;2022-08-23T06:07:18;10.30;;;5.70;;
13325;SDS011;6732;51.044;3.746;2022-08-23T06:09:44;14.32;;;6.43;;
13325;SDS011;6732;51.044;3.746;2022-08-23T06:12:10;12.23;;;6.97;;
13325;SDS011;6732;51.044;3.746;2022-08-23T06:14:36;10.90;;;6.50;;
13325;SDS011;6732;51.044;3.746;2022-08-23T06:17:02;8.95;;;6.28;;
13325;SDS011;6732;51.044;3.746;2022-08-23T06:19:29;9.38;;;6.28;;
13325;SDS011;6732;51.044;3.746;2022-08-23T06:21:55;10.75;;;5.93;;
13325;SDS011;6732;51.044;3.746;2022-08-23T06:24:21;11.20;;;5.85;;
13325;SDS011;6732;51.044;3.746;2022-08-23T06:26:47;11.75;;;6.10;;
13325;SDS011;6732;51.044;3.746;2022-08-23T06:29:14;8.60;;;5.68;;
13325;SDS011;6732;51.044;3.746;2022-08-23T06:31:42;11.23;;;5.95;;
13325;SDS011;6732;51.044;3.746;2022-08-23T06:34:21;9.68;;;5.30;;
13325;SDS011;6732;51.044;3.746;2022-08-23T06:36:53;10.18;;;5.47;;
13325;SDS011;6732;51.044;3.746;2022-08-23T06:39:21;9.02;;;5.22;;
13325;SDS011;6732;51.044;3.746;2022-08-23T06:41:50;11.00;;;5.15;;
13325;SDS011;6732;51.044;3.746;2022-08-23T06:44:17;8.18;;;4.38;;
13325;SDS011;6732;51.044;3.746;2022-08-23T06:46:44;9.98;;;5.50;;
13325;SDS011;6732;51.044;3.746;2022-08-23T06:49:12;9.93;;;5.57;;
13325;SDS011;6732;51.044;3.746;2022-08-23T06:51:44;10.70;;;4.90;;
13325;SDS011;6732;51.044;3.746;2022-08-23T06:54:13;8.60;;;4.53;;
13325;SDS011;6732;51.044;3.746;2022-08-23T06:56:41;9.70;;;5.10;;
13325;SDS011;6732;51.044;3.746;2022-08-23T06:59:08;11.00;;;5.63;;
13325;SDS011;6732;51.044;3.746;2022-08-23T07:04:13;9.77;;;5.20;;
13325;SDS011;6732;51.044;3.746;2022-08-23T07:06:41;10.93;;;5.18;;
13325;SDS011;6732;51.044;3.746;2022-08-23T07:09:07;10.93;;;5.47;;
13325;SDS011;6732;51.044;3.746;2022-08-23T07:11:33;15.13;;;6.13;;
13325;SDS011;6732;51.044;3.746;2022-08-23T07:14:01;13.32;;;5.75;;
13325;SDS011;6732;51.044;3.746;2022-08-23T07:16:33;7.90;;;4.80;;
13325;SDS011;6732;51.044;3.746;2022-08-23T07:19:00;10.40;;;4.97;;
13325;SDS011;6732;51.044;3.746;2022-08-23T07:21:26;10.80;;;5.35;;
13325;SDS011;6732;51.044;3.746;2022-08-23T07:23:52;15.00;;;5.53;;
13325;SDS011;6732;51.044;3.746;2022-08-23T07:26:19;11.85;;;5.57;;
13325;SDS011;6732;51.044;3.746;2022-08-23T07:28:46;9.35;;;5.18;;
13325;SDS011;6732;51.044;3.746;2022-08-23T07:31:13;10.63;;;5.50;;
13325;SDS011;6732;51.044;3.746;2022-08-23T07:33:51;11.98;;;6.38;;
13325;SDS011;6732;51.044;3.746;2022-08-23T07:36:19;11.63;;;5.68;;
13325;SDS011;6732;51.044;3.746;2022-08-23T07:38:47;7.97;;;5.07;;
13325;SDS011;6732;51.044;3.746;2022-08-23T07:41:14;8.60;;;5.00;;
13325;SDS011;6732;51.044;3.746;2022-08-23T07:43:42;11.27;;;5.47;;
13325;SDS011;6732;51.044;3.746;2022-08-23T07:46:08;12.82;;;5.15;;
13325;SDS011;6732;51.044;3.746;2022-08-23T07:48:34;12.02;;;5.20;;
13325;SDS011;6732;51.044;3.746;2022-08-23T07:51:02;12.50;;;5.70;;
13325;SDS011;6732;51.044;3.746;2022-08-23T07:53:30;10.32;;;5.18;;
13325;SDS011;6732;51.044;3.746;2022-08-23T07:55:57;12.88;;;5.60;;
13325;SDS011;6732;51.044;3.746;2022-08-23T07:58:23;11.32;;;5.93;;
13325;SDS011;6732;51.044;3.746;2022-08-23T08:00:50;11.50;;;5.82;;
13325;SDS011;6732;51.044;3.746;2022-08-23T08:03:18;11.45;;;5.72;;
13325;SDS011;6732;51.044;3.746;2022-08-23T08:05:44;10.73;;;5.65;;
13325;SDS011;6732;51.044;3.746;2022-08-23T08:08:10;10.27;;;6.05;;
13325;SDS011;6732;51.044;3.746;2022-08-23T08:10:40;13.00;;;6.93;;
13325;SDS011;6732;51.044;3.746;2022-08-23T08:13:08;11.52;;;5.53;;
13325;SDS011;6732;51.044;3.746;2022-08-23T08:15:35;15.20;;;6.50;;
13325;SDS011;6732;51.044;3.746;2022-08-23T08:18:05;12.52;;;6.75;;
13325;SDS011;6732;51.044;3.746;2022-08-23T08:20:31;15.00;;;6.28;;
13325;SDS011;6732;51.044;3.746;2022-08-23T08:23:00;13.20;;;7.45;;
13325;SDS011;6732;51.044;3.746;2022-08-23T08:25:26;12.38;;;6.20;;
13325;SDS011;6732;51.044;3.746;2022-08-23T08:27:55;9.65;;;5.15;;
13325;SDS011;6732;51.044;3.746;2022-08-23T08:30:22;8.73;;;5.10;;
13325;SDS011;6732;51.044;3.746;2022-08-23T08:32:48;11.15;;;4.70;;
13325;SDS011;6732;51.044;3.746;2022-08-23T08:35:14;6.97;;;4.30;;
13325;SDS011;6732;51.044;3.746;2022-08-23T08:37:40;8.43;;;4.45;;
13325;SDS011;6732;51.044;3.746;2022-08-23T08:40:06;8.43;;;4.28;;
13325;SDS011;6732;51.044;3.746;2022-08-23T08:45:18;10.15;;;4.05;;
13325;SDS011;6732;51.044;3.746;2022-08-23T08:47:48;9.43;;;4.25;;
13325;SDS011;6732;51.044;3.746;2022-08-23T08:50:29;8.45;;;3.70;;
13325;SDS011;6732;51.044;3.746;2022-08-23T08:53:09;7.57;;;4.25;;
13325;SDS011;6732;51.044;3.746;2022-08-23T08:55:42;6.68;;;3.50;;
13325;SDS011;6732;51.044;3.746;2022-08-23T08:58:13;6.55;;;3.75;;
13325;SDS011;6732;51.044;3.746;2022-08-23T09:00:45;7.88;;;3.92;;
13325;SDS011;6732;51.044;3.746;2022-08-23T09:03:12;6.43;;;3.67;;
13325;SDS011;6732;51.044;3.746;2022-08-23T09:05:46;10.85;;;4.07;;
13325;SDS011;6732;51.044;3.746;2022-08-23T09:11:06;7.85;;;3.55;;
13325;SDS011;6732;51.044;3.746;2022-08-23T09:19:21;5.20;;;2.42;;
13325;SDS011;6732;51.044;3.746;2022-08-23T09:24:22;6.07;;;2.30;;
13325;SDS011;6732;51.044;3.746;2022-08-23T09:26:49;5.10;;;3.08;;
13325;SDS011;6732;51.044;3.746;2022-08-23T09:29:23;4.93;;;2.90;;
13325;SDS011;6732;51.044;3.746;2022-08-23T09:32:04;6.05;;;2.80;;
13325;SDS011;6732;51.044;3.746;2022-08-23T09:37:17;7.20;;;3.08;;
13325;SDS011;6732;51.044;3.746;2022-08-23T09:39:49;4.93;;;2.85;;
13325;SDS011;6732;51.044;3.746;2022-08-23T09:42:38;4.60;;;2.92;;
13325;SDS011;6732;51.044;3.746;2022-08-23T09:45:05;4.60;;;2.30;;
13325;SDS011;6732;51.044;3.746;2022-08-23T09:47:49;4.93;;;2.00;;
13325;SDS011;6732;51.044;3.746;2022-08-23T09:50:25;5.20;;;2.30;;
13325;SDS011;6732;51.044;3.746;2022-08-23T09:53:01;4.97;;;2.33;;
13325;SDS011;6732;51.044;3.746;2022-08-23T09:55:32;3.88;;;2.25;;
13325;SDS011;6732;51.044;3.746;2022-08-23T09:58:25;4.63;;;2.08;;
13325;SDS011;6732;51.044;3.746;2022-08-23T10:00:46;3.80;;;2.17;;
13325;SDS011;6732;51.044;3.746;2022-08-23T10:03:40;3.15;;;1.88;;
13325;SDS011;6732;51.044;3.746;2022-08-23T10:06:06;5.72;;;2.08;;
13325;SDS011;6732;51.044;3.746;2022-08-23T10:08:48;5.80;;;1.90;;
13325;SDS011;6732;51.044;3.746;2022-08-23T10:11:21;5.47;;;1.98;;
13325;SDS011;6732;51.044;3.746;2022-08-23T10:13:51;4.45;;;1.77;;
13325;SDS011;6732;51.044;3.746;2022-08-23T10:16:22;2.67;;;1.50;;
13325;SDS011;6732;51.044;3.746;2022-08-23T10:18:55;2.10;;;1.50;;
13325;SDS011;6732;51.044;3.746;2022-08-23T10:26:42;2.00;;;1.30;;
13325;SDS011;6732;51.044;3.746;2022-08-23T10:29:19;0.95;;;0.90;;
13325;SDS011;6732;51.044;3.746;2022-08-23T10:37:31;1.10;;;0.98;;
13325;SDS011;6732;51.044;3.746;2022-08-23T10:40:24;3.72;;;1.08;;
13325;SDS011;6732;51.044;3.746;2022-08-23T10:45:34;1.00;;;1.00;;
13325;SDS011;6732;51.044;3.746;2022-08-23T10:50:52;1.48;;;0.90;;
13325;SDS011;6732;51.044;3.746;2022-08-23T10:53:32;1.20;;;1.10;;
13325;SDS011;6732;51.044;3.746;2022-08-23T10:56:10;1.48;;;1.20;;
13325;SDS011;6732;51.044;3.746;2022-08-23T11:01:51;2.53;;;1.20;;
13325;SDS011;6732;51.044;3.746;2022-08-23T11:04:31;1.98;;;1.30;;
13325;SDS011;6732;51.044;3.746;2022-08-23T11:07:14;1.60;;;1.50;;
13325;SDS011;6732;51.044;3.746;2022-08-23T11:09:56;1.70;;;1.60;;
13325;SDS011;6732;51.044;3.746;2022-08-23T11:18:09;1.98;;;1.65;;
13325;SDS011;6732;51.044;3.746;2022-08-23T11:23:51;2.20;;;1.55;;
13325;SDS011;6732;51.044;3.746;2022-08-23T11:29:37;1.85;;;1.70;;
13325;SDS011;6732;51.044;3.746;2022-08-23T11:40:03;1.60;;;1.50;;
13325;SDS011;6732;51.044;3.746;2022-08-23T12:18:35;1.90;;;1.70;;
13325;SDS011;6732;51.044;3.746;2022-08-23T12:21:20;1.83;;;1.73;;
13325;SDS011;6732;51.044;3.746;2022-08-23T12:23:51;2.45;;;1.80;;
13325;SDS011;6732;51.044;3.746;2022-08-23T12:26:25;1.73;;;1.50;;
13325;SDS011;6732;51.044;3.746;2022-08-23T12:28:53;1.70;;;1.60;;
13325;SDS011;6732;51.044;3.746;2022-08-23T12:31:35;2.67;;;1.50;;
13325;SDS011;6732;51.044;3.746;2022-08-23T12:34:19;1.42;;;1.33;;
13325;SDS011;6732;51.044;3.746;2022-08-23T12:37:05;1.92;;;1.70;;
13325;SDS011;6732;51.044;3.746;2022-08-23T12:39:50;1.65;;;1.33;;
13325;SDS011;6732;51.044;3.746;2022-08-23T12:42:26;1.92;;;1.35;;
13325;SDS011;6732;51.044;3.746;2022-08-23T12:45:19;1.65;;;1.55;;
13325;SDS011;6732;51.044;3.746;2022-08-23T12:48:00;1.73;;;1.60;;
13325;SDS011;6732;51.044;3.746;2022-08-23T12:50:30;2.53;;;1.90;;
13325;SDS011;6732;51.044;3.746;2022-08-23T12:53:14;2.22;;;1.83;;
13325;SDS011;6732;51.044;3.746;2022-08-23T12:55:50;2.08;;;1.90;;
13325;SDS011;6732;51.044;3.746;2022-08-23T12:58:26;4.38;;;1.90;;
13325;SDS011;6732;51.044;3.746;2022-08-23T13:00:55;1.98;;;1.70;;
13325;SDS011;6732;51.044;3.746;2022-08-23T13:03:33;2.78;;;1.70;;
13325;SDS011;6732;51.044;3.746;2022-08-23T13:06:13;2.47;;;1.80;;
13325;SDS011;6732;51.044;3.746;2022-08-23T13:08:46;2.03;;;1.52;;
13325;SDS011;6732;51.044;3.746;2022-08-23T13:11:17;2.70;;;1.50;;
13325;SDS011;6732;51.044;3.746;2022-08-23T13:13:46;1.38;;;1.27;;
13325;SDS011;6732;51.044;3.746;2022-08-23T13:16:32;1.55;;;1.40;;
13325;SDS011;6732;51.044;3.746;2022-08-23T13:19:17;1.40;;;1.30;;
13325;SDS011;6732;51.044;3.746;2022-08-23T13:21:46;1.50;;;1.40;;
13325;SDS011;6732;51.044;3.746;2022-08-23T13:24:27;2.13;;;1.40;;
13325;SDS011;6732;51.044;3.746;2022-08-23T13:45:55;2.58;;;1.40;;
13325;SDS011;6732;51.044;3.746;2022-08-23T13:48:32;1.38;;;1.27;;
13325;SDS011;6732;51.044;3.746;2022-08-23T13:53:49;1.20;;;1.10;;
13325;SDS011;6732;51.044;3.746;2022-08-23T13:56:15;1.38;;;1.30;;
13325;SDS011;6732;51.044;3.746;2022-08-23T13:58:41;2.30;;;1.35;;
13325;SDS011;6732;51.044;3.746;2022-08-23T14:01:10;1.35;;;1.25;;
13325;SDS011;6732;51.044;3.746;2022-08-23T14:03:42;1.33;;;1.23;;
13325;SDS011;6732;51.044;3.746;2022-08-23T14:06:09;1.48;;;1.38;;
13325;SDS011;6732;51.044;3.746;2022-08-23T14:08:35;1.50;;;1.40;;
13325;SDS011;6732;51.044;3.746;2022-08-23T14:11:01;1.55;;;1.45;;
13325;SDS011;6732;51.044;3.746;2022-08-23T14:13:28;2.25;;;1.40;;
13325;SDS011;6732;51.044;3.746;2022-08-23T14:15:58;2.53;;;1.70;;
13325;SDS011;6732;51.044;3.746;2022-08-23T14:18:28;3.20;;;1.33;;
13325;SDS011;6732;51.044;3.746;2022-08-23T14:20:54;2.20;;;1.50;;
13325;SDS011;6732;51.044;3.746;2022-08-23T14:23:20;1.30;;;1.20;;
13325;SDS011;6732;51.044;3.746;2022-08-23T14:25:47;1.88;;;1.33;;
13325;SDS011;6732;51.044;3.746;2022-08-23T14:28:15;2.35;;;1.48;;
13325;SDS011;6732;51.044;3.746;2022-08-23T14:30:43;1.67;;;1.50;;
13325;SDS011;6732;51.044;3.746;2022-08-23T14:33:09;2.95;;;1.60;;
13325;SDS011;6732;51.044;3.746;2022-08-23T14:35:36;1.35;;;1.25;;
13325;SDS011;6732;51.044;3.746;2022-08-23T14:38:02;1.65;;;1.30;;
13325;SDS011;6732;51.044;3.746;2022-08-23T14:40:28;2.92;;;1.30;;
13325;SDS011;6732;51.044;3.746;2022-08-23T14:42:53;1.42;;;1.08;;
13325;SDS011;6732;51.044;3.746;2022-08-23T14:45:20;2.67;;;1.63;;
13325;SDS011;6732;51.044;3.746;2022-08-23T14:47:46;4.38;;;1.70;;
13325;SDS011;6732;51.044;3.746;2022-08-23T14:50:12;1.58;;;1.48;;
13325;SDS011;6732;51.044;3.746;2022-08-23T14:52:40;1.48;;;1.38;;
13325;SDS011;6732;51.044;3.746;2022-08-23T14:55:08;1.90;;;1.33;;
13325;SDS011;6732;51.044;3.746;2022-08-23T14:57:34;3.10;;;1.60;;
13325;SDS011;6732;51.044;3.746;2022-08-23T15:00:01;1.70;;;1.40;;
13325;SDS011;6732;51.044;3.746;2022-08-23T15:02:28;1.35;;;1.25;;
13325;SDS011;6732;51.044;3.746;2022-08-23T15:04:54;1.90;;;1.38;;
13325;SDS011;6732;51.044;3.746;2022-08-23T15:07:21;2.55;;;1.52;;
13325;SDS011;6732;51.044;3.746;2022-08-23T15:09:48;3.53;;;1.30;;
13325;SDS011;6732;51.044;3.746;2022-08-23T15:12:16;1.88;;;1.50;;
13325;SDS011;6732;51.044;3.746;2022-08-23T15:14:43;1.48;;;1.33;;
13325;SDS011;6732;51.044;3.746;2022-08-23T15:17:09;2.10;;;1.50;;
13325;SDS011;6732;51.044;3.746;2022-08-23T15:19:35;1.65;;;1.50;;
13325;SDS011;6732;51.044;3.746;2022-08-23T15:22:01;1.85;;;1.42;;
13325;SDS011;6732;51.044;3.746;2022-08-23T15:24:27;2.03;;;1.50;;
13325;SDS011;6732;51.044;3.746;2022-08-23T15:26:54;2.80;;;1.80;;
13325;SDS011;6732;51.044;3.746;2022-08-23T15:29:25;2.40;;;1.60;;
13325;SDS011;6732;51.044;3.746;2022-08-23T15:31:52;2.05;;;1.70;;
13325;SDS011;6732;51.044;3.746;2022-08-23T15:34:19;2.53;;;1.83;;
13325;SDS011;6732;51.044;3.746;2022-08-23T15:36:45;4.75;;;1.92;;
13325;SDS011;6732;51.044;3.746;2022-08-23T15:39:11;2.88;;;1.40;;
13325;SDS011;6732;51.044;3.746;2022-08-23T15:41:37;3.35;;;1.75;;
13325;SDS011;6732;51.044;3.746;2022-08-23T15:44:03;3.03;;;1.55;;
13325;SDS011;6732;51.044;3.746;2022-08-23T15:46:29;2.20;;;1.50;;
13325;SDS011;6732;51.044;3.746;2022-08-23T15:49:03;2.03;;;1.40;;
13325;SDS011;6732;51.044;3.746;2022-08-23T15:51:35;3.47;;;1.67;;
13325;SDS011;6732;51.044;3.746;2022-08-23T15:54:02;1.60;;;1.50;;
13325;SDS011;6732;51.044;3.746;2022-08-23T15:56:49;1.55;;;1.45;;
13325;SDS011;6732;51.044;3.746;2022-08-23T15:59:17;2.15;;;1.50;;
13325;SDS011;6732;51.044;3.746;2022-08-23T16:01:46;1.70;;;1.60;;
13325;SDS011;6732;51.044;3.746;2022-08-23T16:04:12;3.10;;;1.60;;
13325;SDS011;6732;51.044;3.746;2022-08-23T16:06:38;1.58;;;1.48;;
13325;SDS011;6732;51.044;3.746;2022-08-23T16:09:05;1.90;;;1.67;;
13325;SDS011;6732;51.044;3.746;2022-08-23T16:11:36;2.00;;;1.80;;
13325;SDS011;6732;51.044;3.746;2022-08-23T16:14:02;1.85;;;1.73;;
13325;SDS011;6732;51.044;3.746;2022-08-23T16:16:29;6.40;;;2.00;;
13325;SDS011;6732;51.044;3.746;2022-08-23T16:18:58;3.13;;;1.80;;
13325;SDS011;6732;51.044;3.746;2022-08-23T16:21:25;4.47;;;1.90;;
13325;SDS011;6732;51.044;3.746;2022-08-23T16:23:53;4.25;;;1.90;;
13325;SDS011;6732;51.044;3.746;2022-08-23T16:26:22;1.77;;;1.60;;
13325;SDS011;6732;51.044;3.746;2022-08-23T16:28:56;2.13;;;1.90;;
13325;SDS011;6732;51.044;3.746;2022-08-23T16:31:23;2.55;;;1.73;;
13325;SDS011;6732;51.044;3.746;2022-08-23T16:33:54;3.20;;;1.88;;
13325;SDS011;6732;51.044;3.746;2022-08-23T16:36:21;2.00;;;1.83;;
13325;SDS011;6732;51.044;3.746;2022-08-23T16:38:48;2.00;;;1.90;;
13325;SDS011;6732;51.044;3.746;2022-08-23T16:41:15;2.75;;;1.80;;
13325;SDS011;6732;51.044;3.746;2022-08-23T16:43:41;2.33;;;1.92;;
13325;SDS011;6732;51.044;3.746;2022-08-23T16:46:07;1.85;;;1.75;;
13325;SDS011;6732;51.044;3.746;2022-08-23T16:48:34;2.20;;;1.63;;
13325;SDS011;6732;51.044;3.746;2022-08-23T16:51:00;2.47;;;1.73;;
13325;SDS011;6732;51.044;3.746;2022-08-23T16:53:26;1.70;;;1.60;;
13325;SDS011;6732;51.044;3.746;2022-08-23T16:55:52;3.15;;;1.80;;
13325;SDS011;6732;51.044;3.746;2022-08-23T16:58:18;1.50;;;1.33;;
13325;SDS011;6732;51.044;3.746;2022-08-23T17:00:46;1.67;;;1.50;;
13325;SDS011;6732;51.044;3.746;2022-08-23T17:03:13;1.60;;;1.40;;
13325;SDS011;6732;51.044;3.746;2022-08-23T17:05:39;2.25;;;1.45;;
13325;SDS011;6732;51.044;3.746;2022-08-23T17:08:06;1.83;;;1.15;;
13325;SDS011;6732;51.044;3.746;2022-08-23T17:10:32;2.75;;;1.40;;
13325;SDS011;6732;51.044;3.746;2022-08-23T17:12:58;1.52;;;1.42;;
13325;SDS011;6732;51.044;3.746;2022-08-23T17:15:26;2.05;;;1.40;;